Latest Weather Observations for Gabo Island

IDN60801

Issued at 3:33 pm EDT Tuesday 3 March 2015 (issued every 30 minutes, with the page automatically refreshed every 10 minutes)

About weather observations | Map of weather stations | Latest weather observations for NSW | Other Formats
Station Details ID: 084016 Name: GABO ISLAND LIGHTHOUSE Lat: -37.57 Lon: 149.92 Height: 15.2 m
Data from the previous 72 hours. | See also: Recent months at Gabo Island
Date/Time
EDT
Temp
°C
App
Temp
°C
Dew
Point
Rel
Hum
%
Delta-T
°C
Wind Press
QNH
hPa
Press
MSL
hPa
Rain
since 9 am
mm
Dir
 
Spd
km/h
Gust
km/h
Spd
kts
Gust
kts
03/03:30pm 19.3 14.2 14.7 74 2.7 SW 35 41 19 22 1014.9 - 0.0
03/03:00pm 19.3 14.6 14.8 75 2.6 SSW 33 39 18 21 1015.1 1015.1 0.0
03/02:30pm 19.6 14.7 15.2 76 2.6 SSW 35 39 19 21 1015.5 - 0.0
03/02:00pm 19.5 14.2 14.1 71 3.1 SSW 35 41 19 22 1015.7 - 0.0
03/01:30pm 19.7 14.7 15.1 75 2.7 SW 35 39 19 21 1016.1 - 0.0
03/01:00pm 20.7 18.4 14.7 68 3.5 SW 20 26 11 14 1016.0 - 0.0
03/12:30pm 20.9 19.2 14.8 68 3.6 WSW 17 20 9 11 1016.0 - 0.0
03/12:00pm 19.9 18.3 14.9 73 2.9 W 17 20 9 11 1016.2 1016.1 0.0
03/11:30am 20.1 18.3 15.5 75 2.7 W 19 24 10 13 1016.4 - 0.0
03/11:00am 19.6 18.0 16.1 80 2.1 WSW 19 22 10 12 1016.3 - 0.0
03/10:30am 19.6 18.0 15.9 79 2.2 WSW 19 20 10 11 1016.1 - 0.0
03/10:00am 19.4 17.3 15.3 77 2.4 W 20 24 11 13 1016.2 - 0.0
03/09:30am 19.1 17.0 15.2 78 2.3 W 20 24 11 13 1015.9 - 0.0
03/09:00am 18.7 16.3 14.4 76 2.5 W 20 24 11 13 1015.8 1015.6 0.0
03/08:30am 18.3 16.1 14.3 77 2.3 W 19 22 10 12 1015.6 - 0.0
03/08:00am 18.0 15.8 14.5 80 2.0 W 19 22 10 12 1015.2 - 0.0
03/07:30am 17.8 15.7 14.7 82 1.8 W 19 20 10 11 1014.9 - 0.0
03/07:00am 17.6 16.2 14.5 82 1.8 W 15 19 8 10 1014.4 - 0.0
03/06:30am 17.5 16.4 14.4 82 1.8 W 13 15 7 8 1014.1 - 0.0
03/06:00am 17.8 16.7 14.3 80 2.0 W 13 17 7 9 1013.6 1013.4 0.0
03/05:30am 17.8 17.2 14.7 82 1.8 W 11 13 6 7 1013.5 - 0.0
03/05:00am 18.1 16.6 14.1 77 2.3 W 15 17 8 9 1013.7 - 0.0
03/04:30am 18.5 17.6 13.8 74 2.7 WNW 11 13 6 7 1013.2 - 0.0
03/04:00am 18.9 18.6 13.4 70 3.1 W 7 11 4 6 1013.6 - 0.0
03/03:30am 19.0 18.7 13.2 69 3.3 N 7 13 4 7 1013.3 - 0.0
03/03:00am 19.6 17.4 13.3 67 3.6 N 17 19 9 10 1013.2 1013.1 0.0
03/02:30am 19.8 17.2 13.3 66 3.7 N 19 30 10 16 1013.4 - 0.0
03/02:00am 19.9 16.7 13.2 65 3.8 N 22 32 12 17 1013.6 - 0.0
03/01:30am 20.0 15.4 13.5 66 3.7 N 30 44 16 24 1013.7 - 0.0
03/01:00am 20.0 15.0 14.1 69 3.4 NNE 33 43 18 23 1013.7 - 0.0
03/12:30am 20.2 15.7 13.8 66 3.7 NNE 30 41 16 22 1014.7 - 0.0
03/12:00am 19.9 16.4 14.4 70 3.2 NNE 26 39 14 21 1015.2 1015.1 0.0
 
Date/Time
EDT
Temp
°C
App
Temp
°C
Dew
Point
Rel
Hum
%
Delta-T
°C
Wind Press
QNH
hPa
Press
MSL
hPa
Rain
since 9 am
mm
Dir
 
Spd
km/h
Gust
km/h
Spd
kts
Gust
kts
02/11:30pm 19.7 15.8 14.5 72 3.0 NNE 28 35 15 19 1015.4 - 0.0
02/11:00pm 19.4 17.7 14.6 74 2.8 N 17 24 9 13 1015.8 - 0.0
02/10:30pm 19.6 16.7 14.0 70 3.2 NNE 22 32 12 17 1016.3 - 0.0
02/10:00pm 19.4 15.8 14.2 72 3.0 NNE 26 33 14 18 1015.9 - 0.0
02/09:30pm 19.2 15.9 14.0 72 3.0 NNE 24 32 13 17 1015.7 - 0.0
02/09:00pm 19.4 15.5 14.4 73 2.9 NNE 28 35 15 19 1015.9 1015.7 0.0
02/08:30pm 19.6 15.4 14.6 73 2.9 NNE 30 35 16 19 1015.6 - 0.0
02/08:00pm 19.9 14.5 14.0 69 3.4 NNE 35 44 19 24 1015.2 - 0.0
02/07:30pm 19.9 14.5 14.0 69 3.4 NNE 35 44 19 24 1015.4 - 0.0
02/07:00pm 20.2 14.1 14.2 68 3.5 NE 39 48 21 26 1014.7 - 0.0
02/06:30pm 20.2 13.6 13.6 66 3.8 NE 41 48 22 26 1015.1 - 0.0
02/06:00pm 20.8 15.9 14.3 66 3.8 NE 33 46 18 25 1015.3 1015.3 0.0
02/05:30pm 20.8 15.8 14.1 65 3.9 NNE 33 43 18 23 1015.5 - 0.0
02/05:00pm 20.2 15.3 14.2 68 3.5 NE 33 39 18 21 1015.9 - 0.0
02/04:30pm 20.7 15.9 14.0 65 3.9 NE 32 37 17 20 1016.3 - 0.0
02/04:00pm 21.0 17.2 14.7 67 3.7 NE 28 33 15 18 1016.5 - 0.0
02/03:30pm 20.7 16.7 14.1 66 3.8 NE 28 32 15 17 1017.0 - 0.0
02/03:00pm 21.2 18.2 14.7 66 3.8 NE 24 30 13 16 1017.3 1017.2 0.0
02/02:30pm 21.1 18.5 13.8 63 4.2 NE 20 22 11 12 1017.9 - 0.0
02/02:00pm 20.0 16.7 12.9 63 4.0 ENE 22 28 12 15 1018.0 - 0.0
02/01:30pm 20.5 17.6 12.9 61 4.3 ENE 20 24 11 13 1018.3 - 0.0
02/01:00pm 19.8 16.6 11.2 57 4.7 E 19 22 10 12 1018.5 - 0.0
02/12:30pm 19.8 17.5 10.5 55 5.0 E 13 19 7 10 1018.8 - 0.0
02/12:00pm 19.5 17.8 9.9 54 5.1 SE 9 17 5 9 1019.2 1019.2 0.0
02/11:30am 19.3 17.6 9.7 53 5.1 SSE 9 11 5 6 1019.4 - 0.0
02/11:00am 18.2 16.9 11.2 63 3.8 S 9 9 5 5 1019.5 - 0.0
02/10:30am 17.6 15.6 10.2 62 3.9 SSW 11 13 6 7 1019.8 - 0.0
02/10:00am 17.8 15.1 10.5 62 3.9 WSW 15 19 8 10 1020.0 - 0.0
02/09:30am 17.6 14.7 9.8 60 4.1 WSW 15 17 8 9 1019.9 - 0.0
02/09:00am 16.6 13.8 10.1 65 3.4 W 15 19 8 10 1019.8 1019.7 0.8
02/08:30am 15.8 12.6 9.8 67 3.1 WNW 17 22 9 12 1019.7 - 0.8
02/08:00am 15.0 11.8 10.0 72 2.6 WNW 17 20 9 11 1019.7 - 0.8
02/07:30am 14.4 11.1 9.7 73 2.4 WNW 17 20 9 11 1019.3 - 0.8
02/07:00am 13.9 10.3 10.0 77 2.0 WNW 19 22 10 12 1019.1 - 0.8
02/06:30am 14.3 10.8 10.3 77 2.1 WNW 19 24 10 13 1019.1 - 0.8
02/06:00am 14.5 11.0 10.3 76 2.2 WNW 19 24 10 13 1018.9 1018.8 0.8
02/05:30am 14.9 11.4 10.3 74 2.4 WNW 19 26 10 14 1018.7 - 0.8
02/05:00am 15.0 11.6 10.6 75 2.3 WNW 19 24 10 13 1018.4 - 0.8
02/04:30am 14.8 11.3 10.8 77 2.1 WNW 20 28 11 15 1017.9 - 0.8
02/04:00am 14.7 11.3 11.1 79 1.9 WNW 20 28 11 15 1017.7 - 0.8
02/03:30am 14.6 11.2 11.2 80 1.8 WNW 20 26 11 14 1017.6 - 0.8
02/03:00am 14.8 11.3 10.8 77 2.1 NW 20 24 11 13 1017.5 1017.4 0.8
02/02:30am 14.7 11.6 11.7 82 1.6 NW 19 24 10 13 1017.6 - 0.8
02/02:00am 14.8 11.7 11.6 81 1.7 WNW 19 22 10 12 1017.7 - 0.8
02/01:30am 15.0 12.0 11.8 81 1.7 WNW 19 24 10 13 1017.6 - 0.8
02/01:00am 14.9 11.9 12.1 83 1.5 WNW 19 24 10 13 1017.4 - 0.8
02/12:30am 15.3 12.4 12.4 83 1.6 W 19 24 10 13 1017.4 - 0.8
02/12:00am 15.8 12.7 12.3 80 1.9 W 20 24 11 13 1017.4 1017.3 0.8
 
Date/Time
EDT
Temp
°C
App
Temp
°C
Dew
Point
Rel
Hum
%
Delta-T
°C
Wind Press
QNH
hPa
Press
MSL
hPa
Rain
since 9 am
mm
Dir
 
Spd
km/h
Gust
km/h
Spd
kts
Gust
kts
01/11:30pm 15.9 12.8 12.2 78 2.0 W 20 28 11 15 1017.6 - 0.8
01/11:00pm 17.3 13.5 12.4 73 2.7 SW 24 30 13 16 1017.5 - 0.8
01/10:30pm 17.6 12.5 11.9 69 3.1 SW 30 33 16 18 1017.4 - 0.8
01/10:00pm 17.9 12.3 12.1 69 3.2 SW 33 41 18 22 1017.2 - 0.8
01/09:30pm 17.8 11.5 12.2 70 3.1 SW 37 44 20 24 1016.8 - 0.8
01/09:00pm 17.9 11.7 12.7 71 2.9 SW 37 43 20 23 1016.5 1016.3 0.8
01/08:30pm 18.0 11.1 12.8 71 2.9 SW 41 48 22 26 1015.9 - 0.8
01/08:00pm 18.0 11.1 12.8 71 2.9 SW 41 48 22 26 1015.3 - 0.8
01/07:30pm 18.0 10.8 12.0 68 3.3 SW 41 48 22 26 1014.7 - 0.8
01/07:00pm 18.3 10.6 12.0 66 3.5 SW 44 54 24 29 1014.2 - 0.8
01/06:30pm 18.3 10.9 13.2 72 2.9 SW 44 54 24 29 1013.6 - 0.8
01/06:00pm 18.7 10.9 13.0 69 3.2 WSW 46 54 25 29 1013.1 1013.0 0.8
01/05:30pm 18.8 10.8 12.5 67 3.5 WSW 46 57 25 31 1012.7 - 0.8
01/05:00pm 18.9 11.1 12.9 68 3.4 SW 46 57 25 31 1012.4 - 0.8
01/04:30pm 18.8 10.5 12.5 67 3.5 WSW 48 59 26 32 1012.1 - 0.8
01/04:00pm 18.6 8.7 12.9 69 3.2 SW 57 67 31 36 1011.6 - 0.8
01/03:30pm 19.1 9.6 12.3 64 3.8 WSW 54 65 29 35 1011.4 - 0.8
01/03:00pm 18.9 9.2 11.8 63 3.9 SW 54 67 29 36 1011.5 1011.3 0.8
01/02:30pm 18.7 8.2 12.4 67 3.5 SW 59 69 32 37 1011.0 - 0.8
01/02:00pm 19.1 9.7 12.7 66 3.6 SW 54 67 29 36 1010.5 - 0.8
01/01:30pm 18.5 9.2 13.2 71 3.0 SW 54 72 29 39 1010.6 - 0.8
01/01:21pm 18.2 9.6 12.9 71 3.0 SW 50 63 27 34 1010.6 - 0.8
01/01:00pm 17.9 12.6 14.1 78 2.2 WSW 35 44 19 24 1010.6 - 0.8
01/12:30pm 17.4 12.7 14.3 82 1.8 WSW 32 41 17 22 1010.4 - 0.8
01/12:00pm 17.1 11.6 14.7 86 1.4 WSW 37 43 20 23 1010.6 1010.4 0.8
01/11:30am 17.1 11.4 15.2 88 1.1 SW 39 46 21 25 1010.1 - 0.8
01/11:00am 17.2 11.1 15.1 87 1.2 WSW 41 50 22 27 1009.7 - 0.8
01/10:30am 17.1 10.1 15.4 90 1.0 SW 46 57 25 31 1008.7 - 0.8
01/10:00am 17.4 9.9 16.0 91 0.8 SW 50 61 27 33 1008.1 - 0.8
01/09:39am 18.3 12.1 17.3 94 0.6 SW 46 52 25 28 1006.9 - 0.4
01/09:30am 18.5 17.0 17.7 95 0.5 WSW 22 26 12 14 1007.7 - 0.2
01/09:00am 18.5 16.5 17.5 94 0.6 SW 24 30 13 16 1006.7 1006.0 1.0
01/08:30am 18.9 17.0 17.6 92 0.8 WSW 24 32 13 17 1007.6 - 0.4
01/08:29am 19.0 17.1 17.7 92 0.8 WSW 24 30 13 16 1007.4 - 0.4
01/08:00am 19.0 20.4 17.7 92 0.8 SSW 7 11 4 6 1005.4 - 0.4
01/07:30am 18.9 19.4 17.4 91 0.9 SSW 11 17 6 9 1005.3 - 0.2
01/07:20am 19.3 20.6 17.5 89 1.1 N 7 11 4 6 1005.7 - 0.2
01/07:00am 19.2 20.0 17.4 89 1.1 N 9 11 5 6 1003.6 - 0.0
01/06:30am 19.7 21.0 17.2 85 1.5 WNW 6 7 3 4 1002.9 - 0.0
01/06:00am 19.6 21.0 17.3 86 1.4 WNW 6 9 3 5 1002.8 1002.6 0.0
01/05:30am 19.7 18.9 17.2 85 1.5 WSW 17 20 9 11 1003.8 - 0.0
01/05:00am 19.8 17.2 17.7 88 1.3 WSW 28 32 15 17 1004.1 - 0.0
01/04:30am 20.3 17.3 17.7 85 1.6 WSW 30 35 16 19 1004.1 - 0.0
01/04:00am 21.2 18.4 16.4 74 2.9 WSW 26 33 14 18 1003.7 - 0.0
01/03:30am 21.7 19.2 17.0 74 2.9 WSW 26 32 14 17 1003.4 - 0.0
01/03:00am 22.2 21.1 19.5 85 1.7 W 24 35 13 19 1002.9 1002.9 0.0
01/02:53am 21.4 21.0 19.0 86 1.5 WSW 19 32 10 17 1003.0 - 0.0
01/02:30am 20.3 22.4 18.9 92 0.9 NNW 6 17 3 9 1001.0 - 0.0
01/02:00am 20.2 18.0 18.8 92 0.9 NNE 28 35 15 19 1001.1 - 0.0
01/01:30am 20.4 15.3 18.6 89 1.1 NNE 43 48 23 26 1001.2 - 0.0
01/01:00am 20.4 19.5 19.0 92 0.9 NNE 22 35 12 19 1002.3 - 0.0
01/12:30am 20.9 21.0 19.2 90 1.1 N 17 26 9 14 1003.1 - 0.0
01/12:00am 20.9 16.9 19.3 90 1.0 NNE 39 44 21 24 1002.9 1002.8 0.0
 
Date/Time
EDT
Temp
°C
App
Temp
°C
Dew
Point
Rel
Hum
%
Delta-T
°C
Wind Press
QNH
hPa
Press
MSL
hPa
Rain
since 9 am
mm
Dir
 
Spd
km/h
Gust
km/h
Spd
kts
Gust
kts
28/11:30pm 20.9 16.8 19.2 90 1.1 NE 39 46 21 25 1003.3 - 0.0
28/11:00pm 20.9 17.6 19.2 90 1.1 NNE 35 43 19 23 1004.3 - 0.0
28/10:30pm 21.2 17.8 19.0 87 1.4 NNE 35 41 19 22 1004.7 - 0.0
28/10:00pm 21.3 17.8 18.8 86 1.6 NNE 35 43 19 23 1005.1 - 0.0
28/09:30pm 21.5 18.3 18.6 83 1.8 NNE 33 41 18 22 1005.4 - 0.0
28/09:00pm 21.4 19.1 18.5 83 1.8 NNE 28 35 15 19 1005.5 1005.4 0.0
28/08:30pm 20.9 19.7 18.3 85 1.6 NNE 22 26 12 14 1005.9 - 0.0
28/08:00pm 21.0 20.4 18.4 85 1.6 NNE 19 22 10 12 1005.9 - 0.0
28/07:30pm 21.3 20.1 18.3 83 1.9 NNE 22 26 12 14 1005.6 - 0.0
28/07:00pm 22.0 20.6 18.7 81 2.1 NNE 24 28 13 15 1005.5 - 0.0
28/06:30pm 22.5 20.8 18.9 80 2.3 NNE 26 32 14 17 1005.3 - 0.0
28/06:00pm 22.5 19.6 18.9 80 2.3 NNE 32 35 17 19 1005.2 1005.0 0.0
28/05:30pm 22.8 20.7 19.0 79 2.4 NNE 28 33 15 18 1005.2 - 0.0
28/05:00pm 22.8 20.3 18.9 78 2.5 NNE 30 33 16 18 1005.1 - 0.0
28/04:30pm 22.8 20.3 18.9 78 2.5 NNE 30 33 16 18 1005.2 - 0.0
28/04:00pm 23.0 20.8 18.6 76 2.8 NNE 28 33 15 18 1005.3 - 0.0

Other Formats:

Comma delimited format used in spreadsheet applications
http://www.bom.gov.au/fwo/IDN60801/IDN60801.94933.axf

JavaScript Object Notation format (JSON) in row-major order
http://www.bom.gov.au/fwo/IDN60801/IDN60801.94933.json